createdAt,value
2018-07-25T00:00:08.564Z,100718.53
2018-07-25T00:02:37.031Z,100709.73
2018-07-25T00:05:06.307Z,100710.88
2018-07-25T00:07:34.740Z,100715.81
2018-07-25T00:10:03.543Z,100710.52
2018-07-25T00:12:32.029Z,100713.69
2018-07-25T00:15:06.410Z,100704.57
2018-07-25T00:17:35.288Z,100711.75
2018-07-25T00:20:04.354Z,100707.25
2018-07-25T00:22:32.917Z,100709.41
2018-07-25T00:25:02.323Z,100709.09
2018-07-25T00:27:30.841Z,100704.81
2018-07-25T00:29:59.316Z,100700.80
2018-07-25T00:32:27.835Z,100705.31
2018-07-25T00:34:56.336Z,100700.38
2018-07-25T00:37:24.895Z,100701.34
2018-07-25T00:39:53.708Z,100700.28
2018-07-25T00:42:22.345Z,100703.88
2018-07-25T00:44:50.951Z,100714.09
2018-07-25T00:47:19.732Z,100708.70
2018-07-25T00:49:48.174Z,100712.90
2018-07-25T00:52:16.645Z,100709.98
2018-07-25T00:54:45.463Z,100708.89
2018-07-25T00:57:14.082Z,100710.95
2018-07-25T00:59:42.619Z,100716.92
2018-07-25T01:02:11.728Z,100723.64
2018-07-25T01:04:40.129Z,100715.50
2018-07-25T01:07:09.247Z,100719.95
2018-07-25T01:09:37.674Z,100715.88
2018-07-25T01:12:06.513Z,100717.39
2018-07-25T01:14:34.949Z,100718.08
2018-07-25T01:17:03.404Z,100712.91
2018-07-25T01:19:32.248Z,100710.95
2018-07-25T01:22:03.746Z,100711.42
2018-07-25T01:24:32.337Z,100710.39
2018-07-25T01:27:01.718Z,100716.78
2018-07-25T01:29:30.148Z,100714.83
2018-07-25T01:31:58.761Z,100715.13
2018-07-25T01:34:27.277Z,100715.89
2018-07-25T01:36:55.743Z,100715.06
2018-07-25T01:39:24.368Z,100717.23
2018-07-25T01:41:52.796Z,100720.11
2018-07-25T01:44:21.277Z,100718.03
2018-07-25T01:46:50.429Z,100722.33
2018-07-25T01:49:18.905Z,100719.13
2018-07-25T01:51:47.356Z,100717.72
2018-07-25T01:54:15.924Z,100717.14
2018-07-25T01:56:44.706Z,100713.05
2018-07-25T01:59:13.300Z,100715.30
2018-07-25T02:01:42.384Z,100717.01
2018-07-25T02:04:10.947Z,100715.51
2018-07-25T02:06:39.464Z,100716.63
2018-07-25T02:09:09.980Z,100720.64
2018-07-25T02:11:38.630Z,100715.05
2018-07-25T02:14:07.352Z,100717.22
2018-07-25T02:16:36.639Z,100712.77
2018-07-25T02:19:05.095Z,100718.19
2018-07-25T02:21:33.757Z,100716.69
2018-07-25T02:24:02.236Z,100713.85
2018-07-25T02:26:30.905Z,100716.32
2018-07-25T02:28:59.409Z,100718.73
2018-07-25T02:31:27.885Z,100712.44
2018-07-25T02:34:01.666Z,100717.54
2018-07-25T02:36:30.112Z,100715.45
2018-07-25T02:38:59.569Z,100715.83
2018-07-25T02:41:28.206Z,100714.99
2018-07-25T02:43:57.420Z,100723.45
2018-07-25T02:46:26.016Z,100720.53
2018-07-25T02:48:54.627Z,100727.38
2018-07-25T02:51:23.106Z,100727.12
2018-07-25T02:53:52.554Z,100727.03
2018-07-25T02:56:21.110Z,100731.58
2018-07-25T02:58:50.314Z,100731.78
2018-07-25T03:01:18.948Z,100734.16
2018-07-25T03:03:52.545Z,100732.56
2018-07-25T03:06:20.981Z,100735.69
2018-07-25T03:08:50.469Z,100732.28
2018-07-25T03:11:19.025Z,100735.98
2018-07-25T03:13:47.593Z,100734.66
2018-07-25T03:16:16.308Z,100742.08
2018-07-25T03:18:45.358Z,100745.95
2018-07-25T03:21:13.885Z,100748.08
2018-07-25T03:23:42.650Z,100746.74
2018-07-25T03:26:11.321Z,100750.33
2018-07-25T03:28:40.123Z,100758.74
2018-07-25T03:31:08.965Z,100756.08
2018-07-25T03:33:37.817Z,100751.20
2018-07-25T03:36:06.676Z,100753.13
2018-07-25T03:38:36.131Z,100754.53
2018-07-25T03:41:05.065Z,100760.53
2018-07-25T03:43:33.898Z,100758.36
2018-07-25T03:46:03.018Z,100761.41
2018-07-25T03:48:31.540Z,100763.20
2018-07-25T03:51:01.046Z,100768.27
2018-07-25T03:53:30.116Z,100769.40
2018-07-25T03:55:59.048Z,100769.78
2018-07-25T03:58:27.979Z,100776.27
2018-07-25T04:00:56.696Z,100773.69
2018-07-25T04:03:25.602Z,100770.56
2018-07-25T04:05:55.413Z,100777.11
2018-07-25T04:08:25.036Z,100771.31
2018-07-25T04:10:54.012Z,100777.69
2018-07-25T04:13:24.116Z,100777.23
2018-07-25T04:15:53.504Z,100774.65
2018-07-25T04:18:23.148Z,100775.39
2018-07-25T04:20:53.865Z,100775.39
2018-07-25T04:23:22.935Z,100778.35
2018-07-25T04:25:52.573Z,100775.80
2018-07-25T04:28:21.436Z,100781.31
2018-07-25T04:30:50.590Z,100773.31
2018-07-25T04:33:19.633Z,100777.59
2018-07-25T04:35:48.944Z,100782.64
2018-07-25T04:38:17.916Z,100787.79
2018-07-25T04:40:46.611Z,100789.33
2018-07-25T04:43:15.422Z,100790.84
2018-07-25T04:45:44.131Z,100788.92
2018-07-25T04:48:12.889Z,100790.17
2018-07-25T04:50:41.557Z,100800.08
2018-07-25T04:53:10.430Z,100793.50
2018-07-25T04:55:39.470Z,100795.70
2018-07-25T04:58:08.681Z,100800.08
2018-07-25T05:00:37.508Z,100797.39
2018-07-25T05:03:08.017Z,100801.98
2018-07-25T05:05:36.780Z,100794.54
2018-07-25T05:16:54.069Z,100814.44
2018-07-25T05:19:23.034Z,100812.94
2018-07-25T05:21:51.833Z,100821.61
2018-07-25T05:24:20.629Z,100824.57
2018-07-25T05:26:49.541Z,100825.78
2018-07-25T05:29:18.519Z,100825.70
2018-07-25T05:31:47.296Z,100830.55
2018-07-25T05:34:16.106Z,100826.75
2018-07-25T05:36:45.241Z,100840.64
2018-07-25T05:39:14.515Z,100833.77
2018-07-25T05:41:43.601Z,100836.92
2018-07-25T05:44:12.441Z,100831.59
2018-07-25T05:46:41.414Z,100831.59
2018-07-25T05:49:10.056Z,100833.97
2018-07-25T05:51:39.829Z,100839.85
2018-07-25T05:54:08.637Z,100845.10
2018-07-25T05:56:37.562Z,100846.61
2018-07-25T05:59:06.912Z,100847.16
2018-07-25T06:01:35.843Z,100844.69
2018-07-25T06:04:04.638Z,100842.56
2018-07-25T06:06:33.361Z,100848.47
2018-07-25T06:09:02.481Z,100844.94
2018-07-25T06:11:31.313Z,100849.31
2018-07-25T06:14:00.504Z,100854.64
2018-07-25T06:16:29.443Z,100853.72
2018-07-25T06:18:58.075Z,100853.88
2018-07-25T06:21:27.498Z,100853.42
2018-07-25T06:23:56.509Z,100858.55
2018-07-25T06:26:25.360Z,100859.67
2018-07-25T06:28:54.358Z,100863.30
2018-07-25T06:31:23.523Z,100863.38
2018-07-25T06:33:52.415Z,100864.19
2018-07-25T06:36:21.266Z,100872.48
2018-07-25T06:38:50.364Z,100868.14
2018-07-25T06:41:19.345Z,100863.95
2018-07-25T06:43:48.239Z,100876.23
2018-07-25T06:46:17.172Z,100873.63
2018-07-25T06:48:46.794Z,100882.28
2018-07-25T06:51:15.600Z,100880.33
2018-07-25T06:53:44.454Z,100885.27
2018-07-25T06:56:13.284Z,100878.80
2018-07-25T06:58:41.924Z,100888.23
2018-07-25T07:01:11.076Z,100891.46
2018-07-25T07:03:40.302Z,100888.47
2018-07-25T07:06:09.166Z,100892.32
2018-07-25T07:08:37.930Z,100892.66
2018-07-25T07:11:06.737Z,100896.50
2018-07-25T07:13:35.804Z,100898.86
2018-07-25T07:16:04.726Z,100896.61
2018-07-25T07:18:33.413Z,100891.70
2018-07-25T07:21:02.457Z,100896.14
2018-07-25T07:23:31.407Z,100894.72
2018-07-25T07:26:00.070Z,100894.98
2018-07-25T07:28:29.543Z,100893.92
2018-07-25T07:30:59.260Z,100891.76
2018-07-25T07:33:28.251Z,100888.93
2018-07-25T07:35:57.123Z,100886.43
2018-07-25T07:38:26.348Z,100889.41
2018-07-25T07:40:55.217Z,100883.59
2018-07-25T07:43:24.157Z,100887.95
2018-07-25T07:45:53.302Z,100891.03
2018-07-25T07:48:22.754Z,100887.31
2018-07-25T07:50:51.729Z,100887.91
2018-07-25T07:53:27.703Z,100887.57
2018-07-25T07:55:56.437Z,100888.10
2018-07-25T07:58:25.071Z,100890.57
2018-07-25T08:00:53.951Z,100888.55
2018-07-25T08:03:23.082Z,100894.91
2018-07-25T08:05:52.460Z,100896.03
2018-07-25T08:08:21.873Z,100896.81
2018-07-25T08:10:51.455Z,100899.98
2018-07-25T08:13:20.366Z,100897.33
2018-07-25T08:15:49.425Z,100899.80
2018-07-25T08:18:18.063Z,100896.62
2018-07-25T08:20:48.236Z,100900.19
2018-07-25T08:23:17.549Z,100897.52
2018-07-25T08:25:46.419Z,100891.66
2018-07-25T08:28:15.390Z,100896.58
2018-07-25T08:30:44.515Z,100893.14
2018-07-25T08:33:14.011Z,100889.12
2018-07-25T08:35:43.317Z,100894.67
2018-07-25T08:38:12.280Z,100897.84
2018-07-25T08:40:41.367Z,100893.08
2018-07-25T08:43:10.269Z,100884.77
2018-07-25T08:45:39.702Z,100883.30
2018-07-25T08:48:09.448Z,100880.47
2018-07-25T08:50:38.852Z,100880.63
2018-07-25T08:53:08.735Z,100884.77
2018-07-25T08:55:37.581Z,100890.38
2018-07-25T08:58:07.185Z,100887.42
2018-07-25T09:00:39.032Z,100896.31
2018-07-25T09:03:08.697Z,100889.83
2018-07-25T09:05:37.709Z,100887.58
2018-07-25T09:08:07.158Z,100889.01
2018-07-25T09:10:36.419Z,100890.44
2018-07-25T09:13:05.865Z,100890.08
2018-07-25T09:15:35.371Z,100888.23
2018-07-25T09:18:04.529Z,100890.97
2018-07-25T09:20:33.192Z,100888.96
2018-07-25T09:23:02.174Z,100886.86
2018-07-25T09:25:31.506Z,100892.84
2018-07-25T09:28:00.428Z,100886.78
2018-07-25T09:30:29.571Z,100878.98
2018-07-25T09:32:58.828Z,100887.73
2018-07-25T09:35:27.456Z,100889.39
2018-07-25T09:37:56.304Z,100886.36
2018-07-25T09:40:25.470Z,100887.17
2018-07-25T09:42:54.217Z,100885.15
2018-07-25T09:45:24.040Z,100887.55
2018-07-25T09:47:52.938Z,100881.01
2018-07-25T09:50:22.060Z,100884.06
2018-07-25T09:52:51.528Z,100884.28
2018-07-25T09:55:20.549Z,100886.14
2018-07-25T09:57:49.606Z,100884.56
2018-07-25T10:00:24.482Z,100876.39
2018-07-25T10:02:53.825Z,100883.36
2018-07-25T10:05:23.844Z,100873.97
2018-07-25T10:07:52.825Z,100879.73
2018-07-25T10:10:21.802Z,100876.27
2018-07-25T10:12:51.200Z,100877.16
2018-07-25T10:15:20.811Z,100875.38
2018-07-25T10:17:49.826Z,100868.75
2018-07-25T10:20:18.931Z,100870.06
2018-07-25T10:22:48.366Z,100874.94
2018-07-25T10:25:18.218Z,100868.25
2018-07-25T10:27:47.109Z,100862.33
2018-07-25T10:30:16.625Z,100862.58
2018-07-25T10:32:45.625Z,100867.91
2018-07-25T10:35:15.030Z,100859.66
2018-07-25T10:37:44.295Z,100861.36
2018-07-25T10:40:13.226Z,100859.62
2018-07-25T10:42:42.681Z,100857.46
2018-07-25T10:45:11.723Z,100864.17
2018-07-25T10:47:41.813Z,100854.34
2018-07-25T10:50:11.041Z,100861.21
2018-07-25T10:52:40.109Z,100858.83
2018-07-25T10:55:09.037Z,100866.02
2018-07-25T10:57:37.956Z,100852.70
2018-07-25T11:00:07.944Z,100854.13
2018-07-25T11:02:37.048Z,100848.07
2018-07-25T11:05:06.574Z,100848.62
2018-07-25T11:07:35.706Z,100843.64
2018-07-25T11:10:05.215Z,100846.26
2018-07-25T11:12:34.388Z,100842.27
2018-07-25T11:15:03.708Z,100842.27
2018-07-25T11:17:32.706Z,100841.47
2018-07-25T11:20:01.767Z,100839.17
2018-07-25T11:22:31.453Z,100837.53
2018-07-25T11:25:00.484Z,100839.73
2018-07-25T11:27:29.459Z,100837.88
2018-07-25T11:29:58.658Z,100833.13
2018-07-25T11:32:27.868Z,100841.61
2018-07-25T11:34:57.408Z,100839.70
2018-07-25T11:57:26.939Z,100818.20
2018-07-25T11:59:56.005Z,100818.86
2018-07-25T12:02:31.234Z,100811.36
2018-07-25T12:05:06.076Z,100810.42
2018-07-25T12:07:35.471Z,100814.84
2018-07-25T12:10:04.890Z,100813.34
2018-07-25T12:12:33.757Z,100802.91
2018-07-25T12:15:02.956Z,100809.27
2018-07-25T12:17:32.336Z,100807.17
2018-07-25T12:20:02.145Z,100807.72
2018-07-25T12:22:31.539Z,100797.81
2018-07-25T12:25:00.800Z,100798.34
2018-07-25T12:27:30.590Z,100793.44
2018-07-25T12:30:00.240Z,100791.59
2018-07-25T12:32:29.316Z,100790.40
2018-07-25T12:34:58.310Z,100784.48
2018-07-25T12:37:31.271Z,100786.64
2018-07-25T12:40:00.372Z,100783.79
2018-07-25T12:42:29.516Z,100781.91
2018-07-25T12:45:01.552Z,100778.16
2018-07-25T12:47:31.029Z,100779.34
2018-07-25T12:50:00.249Z,100783.56
2018-07-25T12:52:29.292Z,100775.57
2018-07-25T12:54:58.465Z,100773.14
2018-07-25T12:57:27.230Z,100779.43
2018-07-25T12:59:56.712Z,100769.23
2018-07-25T13:02:26.101Z,100768.83
2018-07-25T13:04:55.224Z,100769.83
2018-07-25T13:07:24.112Z,100766.91
2018-07-25T13:09:53.156Z,100768.47
2018-07-25T13:12:21.800Z,100771.52
2018-07-25T13:14:50.796Z,100758.78
2018-07-25T13:17:19.913Z,100757.77
2018-07-25T13:19:49.007Z,100760.80
2018-07-25T13:22:18.247Z,100758.22
2018-07-25T13:24:47.338Z,100755.35
2018-07-25T13:27:16.335Z,100765.98
2018-07-25T13:29:45.490Z,100761.05
2018-07-25T13:32:14.353Z,100764.06
2018-07-25T13:34:43.213Z,100751.79
2018-07-25T13:37:12.133Z,100756.31
2018-07-25T13:39:41.069Z,100753.41
2018-07-25T13:42:10.257Z,100750.45
2018-07-25T13:44:39.288Z,100743.55
2018-07-25T13:47:08.133Z,100746.76
2018-07-25T13:49:37.361Z,100748.47
2018-07-25T13:52:08.140Z,100749.70
2018-07-25T13:54:37.664Z,100736.73
2018-07-25T13:57:06.404Z,100737.86
2018-07-25T13:59:35.026Z,100734.75
2018-07-25T14:02:04.076Z,100725.52
2018-07-25T14:04:33.242Z,100730.47
2018-07-25T14:07:02.326Z,100736.90
2018-07-25T14:09:31.207Z,100730.88
2018-07-25T14:12:00.158Z,100732.13
2018-07-25T14:14:28.850Z,100719.06
2018-07-25T14:16:57.879Z,100718.04
2018-07-25T14:19:27.697Z,100723.80
2018-07-25T14:21:56.998Z,100725.61
2018-07-25T14:24:26.041Z,100719.25
2018-07-25T14:26:55.514Z,100713.20
2018-07-25T14:29:24.660Z,100718.91
2018-07-25T14:31:53.954Z,100712.80
2018-07-25T14:34:22.713Z,100718.19
2018-07-25T14:36:51.575Z,100716.31
2018-07-25T14:39:20.466Z,100710.84
2018-07-25T14:41:49.579Z,100710.45
2018-07-25T14:44:18.463Z,100710.34
2018-07-25T14:46:47.356Z,100715.77
2018-07-25T14:49:16.182Z,100714.84
2018-07-25T14:51:44.935Z,100714.39
2018-07-25T14:54:14.120Z,100717.97
2018-07-25T14:56:42.987Z,100719.75
2018-07-25T14:59:12.297Z,100709.98
2018-07-25T15:01:41.419Z,100723.86
2018-07-25T15:04:10.400Z,100719.03
2018-07-25T15:06:39.494Z,100731.45
2018-07-25T15:09:10.068Z,100728.02
2018-07-25T15:11:39.653Z,100720.42
2018-07-25T15:14:09.089Z,100726.17
2018-07-25T15:16:38.247Z,100723.42
2018-07-25T15:19:07.255Z,100715.22
2018-07-25T15:21:36.142Z,100720.62
2018-07-25T15:24:06.555Z,100712.55
2018-07-25T15:26:35.640Z,100715.52
2018-07-25T15:29:04.692Z,100703.16
2018-07-25T15:31:33.254Z,100702.98
2018-07-25T15:34:04.387Z,100697.19
2018-07-25T15:36:53.094Z,100693.30
2018-07-25T15:39:24.228Z,100694.23
2018-07-25T15:41:54.176Z,100693.34
2018-07-25T15:44:24.081Z,100685.70
2018-07-25T15:46:53.400Z,100697.66
2018-07-25T15:49:22.682Z,100695.68
2018-07-25T15:51:51.827Z,100699.55
2018-07-25T15:54:20.938Z,100697.25
2018-07-25T15:56:49.771Z,100701.67
2018-07-25T15:59:19.335Z,100699.22
2018-07-25T16:01:48.164Z,100703.23
2018-07-25T16:04:17.077Z,100702.14
2018-07-25T16:06:46.327Z,100697.86
2018-07-25T16:09:15.747Z,100693.46
2018-07-25T16:11:45.302Z,100688.91
2018-07-25T16:14:14.617Z,100702.78
2018-07-25T16:16:43.698Z,100701.12
2018-07-25T16:19:13.091Z,100698.39
2018-07-25T16:21:42.011Z,100699.83
2018-07-25T16:24:11.047Z,100700.28
2018-07-25T16:26:41.084Z,100696.91
2018-07-25T16:29:10.258Z,100688.20
2018-07-25T16:31:39.144Z,100697.33
2018-07-25T16:34:08.335Z,100687.67
2018-07-25T16:36:37.310Z,100691.27
2018-07-25T16:39:16.204Z,100688.48
2018-07-25T16:41:45.015Z,100695.83
2018-07-25T16:44:14.249Z,100695.78
2018-07-25T16:46:43.206Z,100690.53
2018-07-25T16:49:12.132Z,100688.16
2018-07-25T16:51:41.225Z,100686.97
2018-07-25T16:54:10.325Z,100685.05
2018-07-25T16:56:39.504Z,100690.73
2018-07-25T16:59:08.653Z,100693.61
2018-07-25T17:01:37.630Z,100696.97
2018-07-25T17:04:06.687Z,100694.55
2018-07-25T17:06:42.391Z,100695.13
2018-07-25T17:09:12.331Z,100689.79
2018-07-25T17:11:41.444Z,100697.03
2018-07-25T17:14:10.271Z,100691.30
2018-07-25T17:16:39.104Z,100698.50
2018-07-25T17:19:08.059Z,100704.45
2018-07-25T17:21:37.009Z,100703.44
2018-07-25T17:24:05.898Z,100704.80
2018-07-25T17:26:34.549Z,100709.04
2018-07-25T17:29:08.274Z,100699.40
2018-07-25T17:31:37.079Z,100705.64
2018-07-25T17:34:06.108Z,100707.83
2018-07-25T17:36:34.917Z,100711.36
2018-07-25T17:39:03.952Z,100704.55
2018-07-25T17:41:32.961Z,100708.45
2018-07-25T17:44:01.689Z,100704.53
2018-07-25T17:46:30.897Z,100701.64
2018-07-25T17:48:59.849Z,100707.67
2018-07-25T17:51:28.927Z,100711.40
2018-07-25T17:53:58.069Z,100713.92
2018-07-25T17:56:27.189Z,100712.71
2018-07-25T17:58:56.194Z,100713.01
2018-07-25T18:01:25.130Z,100714.70
2018-07-25T18:03:53.951Z,100718.91
2018-07-25T18:06:23.091Z,100715.32
2018-07-25T18:08:51.847Z,100720.02
2018-07-25T18:11:21.244Z,100715.02
2018-07-25T18:13:55.582Z,100723.91
2018-07-25T18:16:25.125Z,100729.57
2018-07-25T18:18:55.261Z,100729.63
2018-07-25T18:21:24.330Z,100726.66
2018-07-25T18:23:59.479Z,100742.22
2018-07-25T18:26:29.316Z,100739.30
2018-07-25T18:28:58.830Z,100744.28
2018-07-25T18:31:28.497Z,100744.72
2018-07-25T18:33:57.855Z,100743.69
2018-07-25T18:36:26.764Z,100748.20
2018-07-25T18:38:56.094Z,100750.05
2018-07-25T18:41:25.676Z,100764.03
2018-07-25T18:43:55.217Z,100769.73
2018-07-25T18:46:24.723Z,100770.29
2018-07-25T18:48:54.545Z,100779.37
2018-07-25T20:03:17.728Z,100854.75
2018-07-25T20:05:46.929Z,100861.65
2018-07-25T20:08:15.904Z,100862.20
2018-07-25T20:10:44.998Z,100859.17
2018-07-25T20:13:14.777Z,100856.16
2018-07-25T20:15:49.297Z,100863.02
2018-07-25T20:18:19.046Z,100858.55
2018-07-25T20:20:49.002Z,100860.02
2018-07-25T20:23:18.100Z,100862.27
2018-07-25T20:25:47.511Z,100860.94
2018-07-25T20:28:16.795Z,100862.39
2018-07-25T20:30:46.609Z,100854.33
2018-07-25T20:33:16.070Z,100856.18
2018-07-25T20:35:45.410Z,100856.30
2018-07-25T20:38:14.293Z,100860.47
2018-07-25T20:40:42.812Z,100857.63
2018-07-25T20:43:11.564Z,100855.93
2018-07-25T20:45:40.794Z,100853.51
2018-07-25T20:48:09.626Z,100857.80
2018-07-25T20:50:39.060Z,100847.53
2018-07-25T20:53:08.124Z,100854.50
2018-07-25T20:55:37.420Z,100859.52
2018-07-25T20:58:06.308Z,100863.29
2018-07-25T21:00:36.137Z,100862.45
2018-07-25T21:03:06.533Z,100857.88
2018-07-25T21:05:35.654Z,100860.45
2018-07-25T21:08:04.402Z,100868.86
2018-07-25T21:10:33.405Z,100863.59
2018-07-25T21:13:02.200Z,100860.91
2018-07-25T21:15:31.157Z,100856.16
2018-07-25T21:17:59.925Z,100854.70
2018-07-25T21:20:28.469Z,100859.45
2018-07-25T21:22:57.075Z,100861.41
2018-07-25T21:25:26.056Z,100858.48
2018-07-25T21:27:54.887Z,100857.65
2018-07-25T21:30:23.660Z,100857.29
2018-07-25T21:32:52.231Z,100851.16
2018-07-25T21:35:20.911Z,100857.16
2018-07-25T21:37:49.472Z,100854.47
2018-07-25T21:40:18.038Z,100852.40
2018-07-25T21:42:46.689Z,100850.70
2018-07-25T21:45:15.161Z,100848.01
2018-07-25T21:47:43.698Z,100855.69
2018-07-25T21:50:12.221Z,100856.16
2018-07-25T21:52:40.799Z,100854.60
2018-07-25T21:55:09.217Z,100853.11
2018-07-25T21:57:38.002Z,100856.16
2018-07-25T22:00:13.439Z,100854.22
2018-07-25T22:02:42.382Z,100859.45
2018-07-25T22:05:11.268Z,100855.56
2018-07-25T22:07:39.855Z,100857.48
2018-07-25T22:10:08.948Z,100856.28
2018-07-25T22:12:38.205Z,100851.28
2018-07-25T22:15:07.722Z,100851.02
2018-07-25T22:17:36.425Z,100859.32
2018-07-25T22:20:06.530Z,100865.16
2018-07-25T22:22:35.028Z,100863.45
2018-07-25T22:25:03.799Z,100858.80
2018-07-25T22:27:32.522Z,100858.33
2018-07-25T22:30:07.685Z,100865.52
2018-07-25T22:32:36.755Z,100867.34
2018-07-25T22:35:05.768Z,100858.55
2018-07-25T22:37:34.453Z,100861.34
2018-07-25T22:40:04.097Z,100860.10
2018-07-25T22:42:32.799Z,100859.38
2018-07-25T22:45:01.413Z,100865.60
2018-07-25T22:47:29.978Z,100863.39
2018-07-25T22:50:02.691Z,100855.34
2018-07-25T22:52:31.273Z,100850.56
2018-07-25T22:54:59.793Z,100861.03
2018-07-25T22:57:28.471Z,100859.09
2018-07-25T22:59:57.225Z,100854.70
2018-07-25T23:02:25.829Z,100859.56
2018-07-25T23:04:54.395Z,100862.25
2018-07-25T23:07:23.752Z,100866.00
2018-07-25T23:09:53.459Z,100864.91
2018-07-25T23:12:22.045Z,100863.28
2018-07-25T23:14:50.584Z,100861.92
2018-07-25T23:17:19.040Z,100859.84
2018-07-25T23:19:47.683Z,100854.98
2018-07-25T23:22:16.724Z,100857.30
2018-07-25T23:24:45.176Z,100855.96
2018-07-25T23:27:13.834Z,100857.64
2018-07-25T23:29:42.457Z,100853.83
2018-07-25T23:32:11.131Z,100852.73
2018-07-25T23:34:39.901Z,100849.81
2018-07-25T23:37:08.409Z,100845.90
2018-07-25T23:39:37.675Z,100850.02
2018-07-25T23:42:06.141Z,100846.60
2018-07-25T23:44:34.803Z,100846.20
2018-07-25T23:47:03.376Z,100845.20
2018-07-25T23:49:32.043Z,100839.58
2018-07-25T23:52:00.777Z,100845.91
2018-07-25T23:54:29.664Z,100840.19
2018-07-25T23:56:58.610Z,100845.55
2018-07-25T23:59:27.250Z,100843.84
